| time (UTC) | temp C | wind direction | speed KPH | gust KPH | rain 1hr cm | rain 24hr cm | rain mn cm | humidity % | barometer mb |
| 20260507202632 | 16 | 236 | 0.0 | 0.0 | 0.00 | 0.00 | 0.00 | 79 | 1015.4 |
| 20260507201632 | 16 | 277 | 0.0 | 0.0 | 0.00 | 0.00 | 0.00 | 77 | 1015.4 |
| 20260507200632 | 16 | 300 | 0.0 | 0.0 | 0.00 | 0.00 | 0.00 | 76 | 1015.4 |
| 20260507195632 | 16 | 193 | 0.0 | 0.0 | 0.00 | 0.00 | 0.00 | 76 | 1015.4 |
| 20260507194632 | 16 | 60 | 0.0 | 0.0 | 0.00 | 0.00 | 0.00 | 78 | 1015.4 |
| 20260507193632 | 16 | 60 | 0.0 | 0.0 | 0.00 | 0.00 | 0.00 | 78 | 1015.3 |
| 20260507192632 | 16 | 60 | 0.0 | 0.0 | 0.00 | 0.00 | 0.00 | 79 | 1015.3 |
| 20260507191632 | 16 | 94 | 0.0 | 0.0 | 0.00 | 0.00 | 0.00 | 80 | 1015.2 |
| 20260507190632 | 16 | 94 | 0.0 | 0.0 | 0.00 | 0.00 | 0.00 | 81 | 1015.1 |
| 20260507185632 | 16 | 50 | 0.0 | 0.0 | 0.00 | 0.00 | 0.00 | 83 | 1015.1 |
| 20260507184632 | 16 | 46 | 1.6 | 4.8 | 0.00 | 0.00 | 0.00 | 84 | 1015.2 |
| 20260507183632 | 16 | 89 | 1.6 | 4.8 | 0.00 | 0.00 | 0.00 | 83 | 1015.1 |
| 20260507182632 | 16 | 80 | 0.0 | 0.0 | 0.00 | 0.00 | 0.00 | 83 | 1015.2 |
| 20260507181632 | 16 | 21 | 0.0 | 3.2 | 0.00 | 0.00 | 0.00 | 83 | 1015.1 |
| 20260507180632 | 16 | 15 | 0.0 | 1.6 | 0.00 | 0.00 | 0.00 | 83 | 1014.9 |
| 20260507175632 | 16 | 80 | 1.6 | 4.8 | 0.00 | 0.00 | 0.00 | 81 | 1014.8 |
| 20260507174632 | 16 | 75 | 3.2 | 6.4 | 0.00 | 0.00 | 0.00 | 79 | 1014.8 |
| 20260507173633 | 17 | 69 | 3.2 | 8.0 | 0.00 | 0.00 | 0.00 | 75 | 1014.5 |
| 20260507172632 | 17 | 94 | 1.6 | 6.4 | 0.00 | 0.00 | 0.00 | 70 | 1014.3 |
| 20260507171632 | 17 | 109 | 1.6 | 6.4 | 0.00 | 0.00 | 0.00 | 67 | 1014.2 |
| 20260507170632 | 17 | 51 | 0.0 | 0.0 | 0.00 | 0.00 | 0.00 | 67 | 1014.2 |
| 20260507165632 | 18 | 78 | 0.0 | 0.0 | 0.00 | 0.00 | 0.00 | 67 | 1014.2 |
| 20260507164633 | 18 | 116 | 0.0 | 0.0 | 0.00 | 0.00 | 0.00 | 66 | 1014.2 |
| 20260507163632 | 18 | 102 | 0.0 | 0.0 | 0.00 | 0.00 | 0.00 | 65 | 1013.9 |
| 20260507162632 | 18 | 89 | 1.6 | 4.8 | 0.00 | 0.00 | 0.00 | 63 | 1013.9 |
| 20260507161632 | 18 | 106 | 1.6 | 6.4 | 0.00 | 0.00 | 0.00 | 65 | 1014.0 |
| 20260507160632 | 18 | 103 | 3.2 | 6.4 | 0.00 | 0.00 | 0.00 | 64 | 1014.0 |
| 20260507155632 | 18 | 93 | 3.2 | 8.0 | 0.00 | 0.00 | 0.00 | 66 | 1014.1 |
| 20260507154632 | 18 | 73 | 1.6 | 8.0 | 0.00 | 0.00 | 0.00 | 68 | 1014.2 |
| 20260507153632 | 18 | 83 | 3.2 | 11.3 | 0.00 | 0.00 | 0.00 | 67 | 1014.1 |
| 20260507152632 | 18 | 93 | 4.8 | 11.3 | 0.00 | 0.00 | 0.00 | 66 | 1014.0 |
| 20260507151632 | 19 | 82 | 4.8 | 9.7 | 0.00 | 0.00 | 0.00 | 66 | 1014.0 |
| 20260507150632 | 18 | 75 | 4.8 | 11.3 | 0.00 | 0.00 | 0.00 | 68 | 1014.0 |
| 20260507145632 | 19 | 74 | 4.8 | 11.3 | 0.00 | 0.00 | 0.00 | 67 | 1014.0 |
| 20260507144632 | 18 | 57 | 6.4 | 12.9 | 0.00 | 0.00 | 0.00 | 68 | 1014.1 |
| 20260507143632 | 18 | 86 | 6.4 | 11.3 | 0.00 | 0.00 | 0.00 | 67 | 1014.2 |
| 20260507142632 | 18 | 90 | 8.0 | 14.5 | 0.00 | 0.00 | 0.00 | 66 | 1014.1 |
| 20260507141632 | 19 | 94 | 6.4 | 11.3 | 0.00 | 0.00 | 0.00 | 68 | 1014.3 |
| 20260507140632 | 18 | 85 | 6.4 | 11.3 | 0.00 | 0.00 | 0.00 | 68 | 1014.4 |
| 20260507135632 | 18 | 75 | 6.4 | 12.9 | 0.00 | 0.00 | 0.00 | 67 | 1014.3 |
| 20260507134632 | 18 | 88 | 6.4 | 11.3 | 0.00 | 0.00 | 0.00 | 66 | 1014.2 |
| 20260507133632 | 19 | 73 | 4.8 | 14.5 | 0.00 | 0.00 | 0.00 | 65 | 1014.1 |
| 20260507132632 | 19 | 64 | 8.0 | 16.1 | 0.00 | 0.00 | 0.00 | 67 | 1014.1 |
| 20260507131632 | 19 | 90 | 6.4 | 14.5 | 0.00 | 0.00 | 0.00 | 69 | 1014.2 |
| 20260507130632 | 19 | 84 | 8.0 | 14.5 | 0.00 | 0.00 | 0.00 | 70 | 1014.3 |
| 20260507125632 | 18 | 78 | 9.7 | 16.1 | 0.00 | 0.00 | 0.00 | 70 | 1014.3 |
| 20260507124632 | 19 | 97 | 8.0 | 17.7 | 0.00 | 0.00 | 0.00 | 69 | 1014.3 |
| 20260507123632 | 19 | 91 | 6.4 | 14.5 | 0.00 | 0.00 | 0.00 | 69 | 1014.4 |
| 20260507122632 | 19 | 102 | 9.7 | 19.3 | 0.00 | 0.00 | 0.00 | 67 | 1014.3 |
| 20260507121632 | 19 | 78 | 6.4 | 14.5 | 0.00 | 0.00 | 0.00 | 67 | 1014.4 |
| 20260507120632 | 19 | 84 | 8.0 | 12.9 | 0.00 | 0.00 | 0.00 | 68 | 1014.4 |
| 20260507115632 | 19 | 92 | 8.0 | 12.9 | 0.00 | 0.00 | 0.00 | 69 | 1014.4 |
| 20260507114631 | 19 | 80 | 6.4 | 14.5 | 0.00 | 0.00 | 0.00 | 68 | 1014.3 |
| 20260507113632 | 19 | 87 | 6.4 | 14.5 | 0.00 | 0.00 | 0.00 | 69 | 1014.3 |
| 20260507112631 | 19 | 90 | 6.4 | 12.9 | 0.00 | 0.00 | 0.00 | 69 | 1014.2 |
| 20260507111631 | 18 | 91 | 8.0 | 12.9 | 0.00 | 0.00 | 0.00 | 70 | 1014.3 |
| 20260507110632 | 18 | 85 | 8.0 | 14.5 | 0.00 | 0.00 | 0.00 | 70 | 1014.3 |
| 20260507105632 | 19 | 78 | 6.4 | 16.1 | 0.00 | 0.00 | 0.00 | 69 | 1014.4 |
| 20260507104631 | 19 | 69 | 6.4 | 12.9 | 0.00 | 0.00 | 0.00 | 71 | 1014.5 |
| 20260507103631 | 19 | 91 | 6.4 | 12.9 | 0.00 | 0.00 | 0.00 | 73 | 1014.5 |
| 20260507102632 | 19 | 90 | 9.7 | 16.1 | 0.00 | 0.00 | 0.00 | 74 | 1014.3 |
| 20260507101631 | 19 | 91 | 9.7 | 17.7 | 0.00 | 0.00 | 0.00 | 73 | 1014.4 |
| 20260507100632 | 19 | 82 | 8.0 | 17.7 | 0.00 | 0.00 | 0.00 | 70 | 1014.3 |
| 20260507095631 | 20 | 90 | 8.0 | 17.7 | 0.00 | 0.00 | 0.00 | 71 | 1014.2 |
| 20260507094632 | 19 | 86 | 9.7 | 14.5 | 0.00 | 0.00 | 0.00 | 72 | 1014.2 |
| 20260507093631 | 20 | 105 | 4.8 | 12.9 | 0.00 | 0.00 | 0.00 | 71 | 1014.2 |
| 20260507092631 | 19 | 87 | 4.8 | 11.3 | 0.00 | 0.00 | 0.00 | 69 | 1014.4 |
| 20260507091631 | 19 | 88 | 6.4 | 12.9 | 0.00 | 0.00 | 0.00 | 74 | 1014.5 |
| 20260507090631 | 19 | 66 | 6.4 | 12.9 | 0.00 | 0.00 | 0.00 | 73 | 1014.4 |
| 20260507085631 | 20 | 104 | 3.2 | 8.0 | 0.00 | 0.00 | 0.00 | 70 | 1014.4 |
| 20260507084632 | 19 | 115 | 3.2 | 8.0 | 0.00 | 0.00 | 0.00 | 72 | 1014.5 |
| 20260507083632 | 18 | 87 | 3.2 | 11.3 | 0.00 | 0.00 | 0.00 | 75 | 1014.5 |
| 20260507082631 | 18 | 67 | 3.2 | 9.7 | 0.00 | 0.00 | 0.00 | 76 | 1014.6 |
| 20260507081631 | 18 | 92 | 3.2 | 12.9 | 0.00 | 0.00 | 0.00 | 75 | 1014.5 |
| 20260507080631 | 18 | 93 | 4.8 | 9.7 | 0.00 | 0.00 | 0.00 | 78 | 1014.4 |
| 20260507075631 | 17 | 84 | 3.2 | 9.7 | 0.00 | 0.00 | 0.00 | 81 | 1014.6 |
| 20260507074631 | 17 | 129 | 0.0 | 0.0 | 0.00 | 0.00 | 0.00 | 81 | 1014.6 |
| 20260507073631 | 17 | 148 | 0.0 | 0.0 | 0.00 | 0.00 | 0.00 | 81 | 1014.6 |
| 20260507072631 | 17 | 123 | 0.0 | 0.0 | 0.00 | 0.00 | 0.00 | 80 | 1014.5 |
| 20260507071631 | 18 | 176 | 0.0 | 0.0 | 0.00 | 0.00 | 0.00 | 78 | 1014.4 |
| 20260507070631 | 18 | 276 | 0.0 | 0.0 | 0.00 | 0.00 | 0.00 | 78 | 1014.5 |
| 20260507065631 | 18 | 272 | 0.0 | 0.0 | 0.00 | 0.00 | 0.00 | 79 | 1014.5 |
| 20260507064631 | 17 | 298 | 0.0 | 0.0 | 0.00 | 0.00 | 0.00 | 80 | 1014.5 |
| 20260507063631 | 17 | 102 | 0.0 | 0.0 | 0.00 | 0.00 | 0.00 | 79 | 1014.3 |
| 20260507062631 | 18 | 122 | 0.0 | 1.6 | 0.00 | 0.00 | 0.00 | 80 | 1014.2 |
| 20260507061631 | 17 | 180 | 0.0 | 0.0 | 0.00 | 0.00 | 0.00 | 86 | 1014.5 |
| 20260507060631 | 16 | 180 | 0.0 | 0.0 | 0.00 | 0.00 | 0.00 | 87 | 1014.8 |
| 20260507055631 | 16 | 180 | 0.0 | 0.0 | 0.00 | 0.00 | 0.00 | 87 | 1014.8 |
| 20260507054631 | 16 | 180 | 0.0 | 0.0 | 0.00 | 0.00 | 0.00 | 87 | 1014.7 |
| 20260507053631 | 16 | 158 | 0.0 | 3.2 | 0.00 | 0.00 | 0.00 | 87 | 1014.5 |
| 20260507052631 | 16 | 152 | 0.0 | 3.2 | 0.00 | 0.00 | 0.00 | 87 | 1014.3 |
| 20260507051631 | 16 | 174 | 0.0 | 0.0 | 0.00 | 0.00 | 0.00 | 87 | 1014.2 |
| 20260507050631 | 16 | 229 | 0.0 | 4.8 | 0.00 | 0.00 | 0.00 | 87 | 1014.0 |
| 20260507045631 | 16 | 235 | 1.6 | 6.4 | 0.00 | 0.00 | 0.00 | 88 | 1013.9 |
| 20260507044631 | 16 | 239 | 0.0 | 4.8 | 0.00 | 0.00 | 0.00 | 88 | 1013.8 |
| 20260507043631 | 16 | 190 | 0.0 | 0.0 | 0.00 | 0.00 | 0.00 | 88 | 1013.6 |
| 20260507042631 | 16 | 183 | 0.0 | 0.0 | 0.00 | 0.00 | 0.00 | 87 | 1013.5 |
| 20260507041631 | 16 | 219 | 0.0 | 0.0 | 0.00 | 0.00 | 0.00 | 87 | 1013.5 |
| 20260507040631 | 16 | 232 | 0.0 | 6.4 | 0.00 | 0.00 | 0.00 | 85 | 1013.3 |
| 20260507035631 | 16 | 256 | 0.0 | 0.0 | 0.00 | 0.00 | 0.00 | 84 | 1013.2 |
| 20260507034631 | 16 | 159 | 0.0 | 4.8 | 0.00 | 0.00 | 0.00 | 82 | 1013.1 |
| 20260507033631 | 16 | 236 | 0.0 | 0.0 | 0.00 | 0.00 | 0.00 | 79 | 1013.2 |
| 20260507032631 | 16 | 263 | 0.0 | 0.0 | 0.00 | 0.00 | 0.00 | 79 | 1013.2 |
| 20260507031631 | 16 | 240 | 0.0 | 0.0 | 0.00 | 0.00 | 0.00 | 78 | 1013.0 |
| 20260507030631 | 16 | 195 | 0.0 | 0.0 | 0.00 | 0.00 | 0.00 | 77 | 1012.7 |
| 20260507025631 | 16 | 135 | 0.0 | 0.0 | 0.00 | 0.00 | 0.00 | 76 | 1012.6 |
| 20260507024631 | 16 | 206 | 0.0 | 1.6 | 0.00 | 0.00 | 0.00 | 75 | 1012.5 |
| 20260507023631 | 16 | 184 | 0.0 | 3.2 | 0.00 | 0.00 | 0.00 | 76 | 1012.5 |
| 20260507022632 | 16 | 251 | 0.0 | 0.0 | 0.00 | 0.00 | 0.00 | 77 | 1012.5 |
| 20260507021631 | 16 | 265 | 0.0 | 0.0 | 0.00 | 0.00 | 0.00 | 78 | 1012.4 |
| 20260507020631 | 16 | 211 | 0.0 | 0.0 | 0.00 | 0.00 | 0.00 | 75 | 1012.3 |
| 20260507015631 | 17 | 180 | 0.0 | 0.0 | 0.00 | 0.00 | 0.00 | 74 | 1012.1 |
| 20260507014631 | 17 | 211 | 0.0 | 0.0 | 0.00 | 0.00 | 0.00 | 74 | 1012.0 |
| 20260507013631 | 16 | 249 | 0.0 | 8.0 | 0.00 | 0.00 | 0.00 | 75 | 1012.0 |
| 20260507012631 | 16 | 255 | 1.6 | 8.0 | 0.00 | 0.00 | 0.00 | 77 | 1012.0 |
| 20260507011631 | 16 | 265 | 0.0 | 0.0 | 0.00 | 0.00 | 0.00 | 79 | 1012.1 |
| 20260507010631 | 16 | 240 | 0.0 | 0.0 | 0.00 | 0.00 | 0.00 | 81 | 1012.0 |
| 20260507005631 | 16 | 242 | 0.0 | 0.0 | 0.00 | 0.00 | 0.00 | 81 | 1011.9 |
| 20260507004631 | 16 | 243 | 0.0 | 0.0 | 0.00 | 0.00 | 0.00 | 80 | 1011.9 |
| 20260507003631 | 16 | 48 | 0.0 | 6.4 | 0.00 | 0.00 | 0.00 | 79 | 1011.9 |
| 20260507002631 | 17 | 33 | 0.0 | 0.0 | 0.00 | 0.00 | 0.00 | 77 | 1011.8 |
| 20260507001631 | 17 | 69 | 0.0 | 0.0 | 0.00 | 0.00 | 0.00 | 77 | 1011.8 |
| 20260507000631 | 17 | 118 | 0.0 | 0.0 | 0.00 | 0.00 | 0.00 | 77 | 1012.0 |
| 20260506235631 | 17 | 67 | 0.0 | 0.0 | 0.00 | 0.00 | 0.00 | 77 | 1012.0 |
| 20260506234631 | 17 | 21 | 0.0 | 0.0 | 0.00 | 0.00 | 0.00 | 76 | 1012.1 |
| 20260506233631 | 17 | 100 | 0.0 | 0.0 | 0.00 | 0.00 | 0.00 | 78 | 1012.2 |
| 20260506232631 | 17 | 120 | 0.0 | 0.0 | 0.00 | 0.00 | 0.00 | 80 | 1012.3 |
| 20260506231631 | 17 | 120 | 0.0 | 0.0 | 0.00 | 0.00 | 0.00 | 76 | 1012.3 |
| 20260506230631 | 17 | 120 | 0.0 | 0.0 | 0.00 | 0.00 | 0.00 | 78 | 1012.3 |
| 20260506225631 | 17 | 120 | 0.0 | 0.0 | 0.00 | 0.00 | 0.00 | 79 | 1012.4 |
| 20260506224631 | 17 | 201 | 0.0 | 0.0 | 0.00 | 0.00 | 0.00 | 75 | 1012.3 |
| 20260506223631 | 17 | 174 | 0.0 | 0.0 | 0.00 | 0.00 | 0.00 | 73 | 1012.1 |
| 20260506222631 | 18 | 267 | 3.2 | 8.0 | 0.00 | 0.00 | 0.00 | 70 | 1012.1 |
| 20260506221631 | 18 | 307 | 4.8 | 8.0 | 0.00 | 0.00 | 0.00 | 70 | 1012.1 |
| 20260506220631 | 17 | 301 | 0.0 | 0.0 | 0.00 | 0.00 | 0.00 | 76 | 1012.2 |
| 20260506215631 | 17 | 296 | 0.0 | 0.0 | 0.00 | 0.00 | 0.00 | 78 | 1012.4 |
| 20260506214631 | 17 | 288 | 0.0 | 0.0 | 0.00 | 0.00 | 0.00 | 80 | 1012.4 |
| 20260506213631 | 17 | 258 | 4.8 | 11.3 | 0.00 | 0.00 | 0.00 | 78 | 1012.3 |
| 20260506212631 | 17 | 55 | 0.0 | 8.0 | 0.00 | 0.00 | 0.00 | 76 | 1012.2 |
| 20260506211631 | 17 | 10 | 0.0 | 0.0 | 0.00 | 0.00 | 0.00 | 78 | 1012.4 |
| 20260506210631 | 17 | 214 | 4.8 | 9.7 | 0.00 | 0.00 | 0.00 | 77 | 1012.4 |
| 20260506205631 | 17 | 316 | 6.4 | 9.7 | 0.00 | 0.00 | 0.00 | 77 | 1012.5 |
| 20260506204631 | 17 | 207 | 0.0 | 4.8 | 0.00 | 0.00 | 0.00 | 81 | 1012.7 |
| 20260506203631 | 17 | 180 | 0.0 | 3.2 | 0.00 | 0.00 | 0.00 | 84 | 1012.7 |